Terminal Aerodrome Forecast
Issued by NWS Charleston, WV

Current Version | Previous Version | Text Only | Print | Product List | Glossary Off
Versions: 1 2 3 4 5 6 7 8 9 10 11 12 13 14 15 16 17 18 19 20 21 22 23 24

000
FTUS41 KRLX 160800 AAA
TAFCRW
TAF AMD
KCRW 160837Z 1609/1706 09004KT P6SM OVC060
     FM161200 13008KT P6SM OVC060
     FM161500 15008G17KT P6SM -SHRA OVC060
     FM161900 14007KT P6SM OVC110=

USA.gov is the U.S. government's official web portal to all federal, state and local government web resources and services.